Στοιχεία αεροπορικών μετεωρολογικών δεδομένων METAR     EFOU Oulu Airport
θερμοκρασία
64°F θερμοκρασία
52°F Σημείο δρόσου
64% Υγρασία



Ανεμος
13 MPH
21 KM/H
6 M/S
11 KTS



130°
NA
Τρέχουσες συνθήκες

Σαφή Σαφή
πίεση 1022.92 (hPa) - 30.21 (inHg)
Ορατότητα 6.2 (μίλι) - 10 (km)
Aεροδρόμιο
Κωδικός αεροδρομίου EFOU

Τοποθεσία: Oulu Airport
Απόσταση: 83 (mi)

Metar:
EFOU 280250Z AUTO 13011KT CAVOK 18/11 Q1023

ώρα: 28-06-2022 05:50 EEST